sensor_id;sensor_type;location;lat;lon;timestamp;P1;durP1;ratioP1;P2;durP2;ratioP2
6388;SDS011;3227;42.654;23.360;2023-08-08T00:01:54;4.15;;;2.47;;
6388;SDS011;3227;42.654;23.360;2023-08-08T00:04:21;11.55;;;3.20;;
6388;SDS011;3227;42.654;23.360;2023-08-08T00:06:48;5.30;;;3.10;;
6388;SDS011;3227;42.654;23.360;2023-08-08T00:09:14;8.23;;;4.28;;
6388;SDS011;3227;42.654;23.360;2023-08-08T00:11:43;6.82;;;4.15;;
6388;SDS011;3227;42.654;23.360;2023-08-08T00:14:09;7.63;;;4.32;;
6388;SDS011;3227;42.654;23.360;2023-08-08T00:16:36;6.30;;;3.65;;
6388;SDS011;3227;42.654;23.360;2023-08-08T00:19:03;4.25;;;2.33;;
6388;SDS011;3227;42.654;23.360;2023-08-08T00:21:30;3.25;;;1.95;;
6388;SDS011;3227;42.654;23.360;2023-08-08T00:23:57;2.70;;;1.73;;
6388;SDS011;3227;42.654;23.360;2023-08-08T00:26:23;3.58;;;1.80;;
6388;SDS011;3227;42.654;23.360;2023-08-08T00:28:51;1.77;;;1.45;;
6388;SDS011;3227;42.654;23.360;2023-08-08T00:31:18;2.50;;;1.60;;
6388;SDS011;3227;42.654;23.360;2023-08-08T00:33:45;2.20;;;1.60;;
6388;SDS011;3227;42.654;23.360;2023-08-08T00:36:12;2.35;;;1.65;;
6388;SDS011;3227;42.654;23.360;2023-08-08T00:38:38;2.38;;;1.60;;
6388;SDS011;3227;42.654;23.360;2023-08-08T00:41:05;1.65;;;1.48;;
6388;SDS011;3227;42.654;23.360;2023-08-08T00:43:32;4.43;;;1.60;;
6388;SDS011;3227;42.654;23.360;2023-08-08T00:46:00;2.92;;;1.67;;
6388;SDS011;3227;42.654;23.360;2023-08-08T00:48:27;2.20;;;1.60;;
6388;SDS011;3227;42.654;23.360;2023-08-08T00:50:54;1.85;;;1.58;;
6388;SDS011;3227;42.654;23.360;2023-08-08T00:53:20;2.58;;;1.80;;
6388;SDS011;3227;42.654;23.360;2023-08-08T00:55:51;2.17;;;1.50;;
6388;SDS011;3227;42.654;23.360;2023-08-08T00:58:19;3.45;;;1.88;;
6388;SDS011;3227;42.654;23.360;2023-08-08T01:00:46;2.65;;;1.70;;
6388;SDS011;3227;42.654;23.360;2023-08-08T01:03:14;2.78;;;1.70;;
6388;SDS011;3227;42.654;23.360;2023-08-08T01:05:42;3.33;;;1.92;;
6388;SDS011;3227;42.654;23.360;2023-08-08T01:08:16;2.67;;;1.88;;
6388;SDS011;3227;42.654;23.360;2023-08-08T01:10:48;3.33;;;1.85;;
6388;SDS011;3227;42.654;23.360;2023-08-08T01:13:16;2.95;;;1.90;;
6388;SDS011;3227;42.654;23.360;2023-08-08T01:15:46;3.20;;;1.70;;
6388;SDS011;3227;42.654;23.360;2023-08-08T01:18:16;2.35;;;1.73;;
6388;SDS011;3227;42.654;23.360;2023-08-08T01:20:44;3.57;;;1.70;;
6388;SDS011;3227;42.654;23.360;2023-08-08T01:23:14;2.53;;;1.63;;
6388;SDS011;3227;42.654;23.360;2023-08-08T01:25:47;3.00;;;1.98;;
6388;SDS011;3227;42.654;23.360;2023-08-08T01:28:15;3.15;;;1.88;;
6388;SDS011;3227;42.654;23.360;2023-08-08T01:30:43;2.40;;;1.70;;
6388;SDS011;3227;42.654;23.360;2023-08-08T01:33:10;2.22;;;1.42;;
6388;SDS011;3227;42.654;23.360;2023-08-08T01:35:42;1.98;;;1.50;;
6388;SDS011;3227;42.654;23.360;2023-08-08T01:38:14;2.60;;;1.70;;
6388;SDS011;3227;42.654;23.360;2023-08-08T01:40:48;3.25;;;1.65;;
6388;SDS011;3227;42.654;23.360;2023-08-08T01:43:15;4.07;;;1.67;;
6388;SDS011;3227;42.654;23.360;2023-08-08T01:45:43;3.20;;;1.90;;
6388;SDS011;3227;42.654;23.360;2023-08-08T01:48:10;2.20;;;1.80;;
6388;SDS011;3227;42.654;23.360;2023-08-08T01:50:37;3.33;;;1.80;;
6388;SDS011;3227;42.654;23.360;2023-08-08T01:53:04;2.53;;;1.80;;
6388;SDS011;3227;42.654;23.360;2023-08-08T01:55:31;2.30;;;1.60;;
6388;SDS011;3227;42.654;23.360;2023-08-08T01:57:59;3.87;;;1.80;;
6388;SDS011;3227;42.654;23.360;2023-08-08T02:00:26;2.23;;;1.67;;
6388;SDS011;3227;42.654;23.360;2023-08-08T02:02:53;1.90;;;1.50;;
6388;SDS011;3227;42.654;23.360;2023-08-08T02:05:20;3.57;;;1.80;;
6388;SDS011;3227;42.654;23.360;2023-08-08T02:07:46;2.63;;;1.80;;
6388;SDS011;3227;42.654;23.360;2023-08-08T02:10:13;4.90;;;1.90;;
6388;SDS011;3227;42.654;23.360;2023-08-08T02:12:40;3.23;;;1.80;;
6388;SDS011;3227;42.654;23.360;2023-08-08T02:15:08;3.63;;;1.90;;
6388;SDS011;3227;42.654;23.360;2023-08-08T02:17:35;3.67;;;2.00;;
6388;SDS011;3227;42.654;23.360;2023-08-08T02:20:04;3.53;;;2.00;;
6388;SDS011;3227;42.654;23.360;2023-08-08T02:22:32;3.27;;;1.80;;
6388;SDS011;3227;42.654;23.360;2023-08-08T02:24:59;3.70;;;1.93;;
6388;SDS011;3227;42.654;23.360;2023-08-08T02:27:26;2.90;;;1.90;;
6388;SDS011;3227;42.654;23.360;2023-08-08T02:29:52;3.10;;;1.93;;
6388;SDS011;3227;42.654;23.360;2023-08-08T02:32:20;2.67;;;1.97;;
6388;SDS011;3227;42.654;23.360;2023-08-08T02:34:47;3.67;;;2.00;;
6388;SDS011;3227;42.654;23.360;2023-08-08T02:37:14;3.47;;;2.20;;
6388;SDS011;3227;42.654;23.360;2023-08-08T02:39:41;3.20;;;2.10;;
6388;SDS011;3227;42.654;23.360;2023-08-08T02:42:08;3.63;;;2.20;;
6388;SDS011;3227;42.654;23.360;2023-08-08T02:44:35;2.53;;;1.80;;
6388;SDS011;3227;42.654;23.360;2023-08-08T02:47:02;4.10;;;2.20;;
6388;SDS011;3227;42.654;23.360;2023-08-08T02:49:30;4.03;;;2.20;;
6388;SDS011;3227;42.654;23.360;2023-08-08T02:51:58;3.23;;;2.10;;
6388;SDS011;3227;42.654;23.360;2023-08-08T02:54:25;4.00;;;2.40;;
6388;SDS011;3227;42.654;23.360;2023-08-08T02:56:52;4.13;;;2.00;;
6388;SDS011;3227;42.654;23.360;2023-08-08T02:59:18;4.00;;;2.10;;
6388;SDS011;3227;42.654;23.360;2023-08-08T03:01:45;4.93;;;2.30;;
6388;SDS011;3227;42.654;23.360;2023-08-08T03:04:12;3.57;;;2.23;;
6388;SDS011;3227;42.654;23.360;2023-08-08T03:06:40;4.30;;;3.20;;
6388;SDS011;3227;42.654;23.360;2023-08-08T03:09:07;3.97;;;2.10;;
6388;SDS011;3227;42.654;23.360;2023-08-08T03:11:34;3.17;;;2.20;;
6388;SDS011;3227;42.654;23.360;2023-08-08T03:14:02;5.00;;;2.33;;
6388;SDS011;3227;42.654;23.360;2023-08-08T03:16:29;5.07;;;2.37;;
6388;SDS011;3227;42.654;23.360;2023-08-08T03:18:56;3.77;;;2.20;;
6388;SDS011;3227;42.654;23.360;2023-08-08T03:21:23;3.25;;;2.30;;
6388;SDS011;3227;42.654;23.360;2023-08-08T03:23:51;4.50;;;2.23;;
6388;SDS011;3227;42.654;23.360;2023-08-08T03:26:18;3.87;;;2.40;;
6388;SDS011;3227;42.654;23.360;2023-08-08T03:28:45;4.10;;;2.37;;
6388;SDS011;3227;42.654;23.360;2023-08-08T03:31:15;3.50;;;2.43;;
6388;SDS011;3227;42.654;23.360;2023-08-08T03:33:42;4.53;;;2.53;;
6388;SDS011;3227;42.654;23.360;2023-08-08T03:36:09;5.40;;;2.50;;
6388;SDS011;3227;42.654;23.360;2023-08-08T03:38:36;5.93;;;2.63;;
6388;SDS011;3227;42.654;23.360;2023-08-08T03:41:05;3.53;;;2.23;;
6388;SDS011;3227;42.654;23.360;2023-08-08T03:43:33;4.23;;;2.63;;
6388;SDS011;3227;42.654;23.360;2023-08-08T03:46:00;7.93;;;3.80;;
6388;SDS011;3227;42.654;23.360;2023-08-08T03:48:26;3.23;;;2.30;;
6388;SDS011;3227;42.654;23.360;2023-08-08T03:50:53;4.10;;;2.60;;
6388;SDS011;3227;42.654;23.360;2023-08-08T03:53:20;4.80;;;2.90;;
6388;SDS011;3227;42.654;23.360;2023-08-08T03:55:46;5.40;;;2.93;;
6388;SDS011;3227;42.654;23.360;2023-08-08T03:58:14;4.47;;;2.80;;
6388;SDS011;3227;42.654;23.360;2023-08-08T04:00:42;8.67;;;2.70;;
6388;SDS011;3227;42.654;23.360;2023-08-08T04:03:12;4.40;;;2.67;;
6388;SDS011;3227;42.654;23.360;2023-08-08T04:05:39;8.10;;;3.00;;
6388;SDS011;3227;42.654;23.360;2023-08-08T04:08:06;4.88;;;2.80;;
6388;SDS011;3227;42.654;23.360;2023-08-08T04:10:33;8.90;;;2.90;;
6388;SDS011;3227;42.654;23.360;2023-08-08T04:13:00;7.75;;;2.60;;
6388;SDS011;3227;42.654;23.360;2023-08-08T04:15:28;5.57;;;3.08;;
6388;SDS011;3227;42.654;23.360;2023-08-08T04:17:55;5.07;;;2.58;;
6388;SDS011;3227;42.654;23.360;2023-08-08T04:20:22;5.93;;;2.63;;
6388;SDS011;3227;42.654;23.360;2023-08-08T04:22:48;6.80;;;2.58;;
6388;SDS011;3227;42.654;23.360;2023-08-08T04:25:15;5.75;;;2.70;;
6388;SDS011;3227;42.654;23.360;2023-08-08T04:27:42;3.72;;;2.65;;
6388;SDS011;3227;42.654;23.360;2023-08-08T04:30:09;4.20;;;2.67;;
6388;SDS011;3227;42.654;23.360;2023-08-08T04:32:38;4.97;;;2.95;;
6388;SDS011;3227;42.654;23.360;2023-08-08T04:35:05;4.35;;;2.95;;
6388;SDS011;3227;42.654;23.360;2023-08-08T04:37:32;5.70;;;2.90;;
6388;SDS011;3227;42.654;23.360;2023-08-08T04:39:59;5.50;;;2.80;;
6388;SDS011;3227;42.654;23.360;2023-08-08T04:42:25;8.90;;;3.03;;
6388;SDS011;3227;42.654;23.360;2023-08-08T04:44:52;4.63;;;2.90;;
6388;SDS011;3227;42.654;23.360;2023-08-08T04:47:19;5.57;;;2.90;;
6388;SDS011;3227;42.654;23.360;2023-08-08T04:49:47;4.55;;;2.95;;
6388;SDS011;3227;42.654;23.360;2023-08-08T04:52:14;7.00;;;2.97;;
6388;SDS011;3227;42.654;23.360;2023-08-08T04:54:40;4.80;;;3.00;;
6388;SDS011;3227;42.654;23.360;2023-08-08T04:57:07;8.27;;;2.83;;
6388;SDS011;3227;42.654;23.360;2023-08-08T04:59:34;5.93;;;3.03;;
6388;SDS011;3227;42.654;23.360;2023-08-08T05:02:01;4.72;;;2.95;;
6388;SDS011;3227;42.654;23.360;2023-08-08T05:04:27;5.45;;;2.80;;
6388;SDS011;3227;42.654;23.360;2023-08-08T05:06:55;6.55;;;3.00;;
6388;SDS011;3227;42.654;23.360;2023-08-08T05:09:22;6.20;;;2.90;;
6388;SDS011;3227;42.654;23.360;2023-08-08T05:11:51;4.88;;;2.97;;
6388;SDS011;3227;42.654;23.360;2023-08-08T05:14:18;5.72;;;2.92;;
6388;SDS011;3227;42.654;23.360;2023-08-08T05:16:45;5.78;;;2.63;;
6388;SDS011;3227;42.654;23.360;2023-08-08T05:19:12;6.80;;;2.78;;
6388;SDS011;3227;42.654;23.360;2023-08-08T05:21:38;5.32;;;2.70;;
6388;SDS011;3227;42.654;23.360;2023-08-08T05:24:07;4.60;;;2.60;;
6388;SDS011;3227;42.654;23.360;2023-08-08T05:26:33;6.72;;;2.60;;
6388;SDS011;3227;42.654;23.360;2023-08-08T05:29:00;4.70;;;2.40;;
6388;SDS011;3227;42.654;23.360;2023-08-08T05:31:27;6.97;;;2.65;;
6388;SDS011;3227;42.654;23.360;2023-08-08T05:33:54;4.95;;;2.35;;
6388;SDS011;3227;42.654;23.360;2023-08-08T05:36:21;9.32;;;2.60;;
6388;SDS011;3227;42.654;23.360;2023-08-08T05:38:48;3.78;;;2.47;;
6388;SDS011;3227;42.654;23.360;2023-08-08T05:41:16;4.15;;;2.40;;
6388;SDS011;3227;42.654;23.360;2023-08-08T05:43:43;6.22;;;2.70;;
6388;SDS011;3227;42.654;23.360;2023-08-08T05:46:10;5.38;;;2.88;;
6388;SDS011;3227;42.654;23.360;2023-08-08T05:48:37;5.10;;;2.90;;
6388;SDS011;3227;42.654;23.360;2023-08-08T05:51:03;6.55;;;3.30;;
6388;SDS011;3227;42.654;23.360;2023-08-08T05:53:30;7.63;;;2.75;;
6388;SDS011;3227;42.654;23.360;2023-08-08T05:55:57;5.50;;;2.50;;
6388;SDS011;3227;42.654;23.360;2023-08-08T05:58:25;4.85;;;2.47;;
6388;SDS011;3227;42.654;23.360;2023-08-08T06:00:52;4.90;;;2.70;;
6388;SDS011;3227;42.654;23.360;2023-08-08T06:03:19;7.25;;;3.42;;
6388;SDS011;3227;42.654;23.360;2023-08-08T06:05:46;8.10;;;2.70;;
6388;SDS011;3227;42.654;23.360;2023-08-08T06:08:13;5.90;;;2.83;;
6388;SDS011;3227;42.654;23.360;2023-08-08T06:10:41;6.88;;;3.13;;
6388;SDS011;3227;42.654;23.360;2023-08-08T06:13:08;5.18;;;3.08;;
6388;SDS011;3227;42.654;23.360;2023-08-08T06:15:36;6.72;;;3.55;;
6388;SDS011;3227;42.654;23.360;2023-08-08T06:18:03;7.47;;;3.58;;
6388;SDS011;3227;42.654;23.360;2023-08-08T06:20:30;6.35;;;3.53;;
6388;SDS011;3227;42.654;23.360;2023-08-08T06:22:57;5.10;;;3.40;;
6388;SDS011;3227;42.654;23.360;2023-08-08T06:25:24;9.73;;;3.58;;
6388;SDS011;3227;42.654;23.360;2023-08-08T06:27:51;11.32;;;5.07;;
6388;SDS011;3227;42.654;23.360;2023-08-08T06:30:18;6.85;;;3.42;;
6388;SDS011;3227;42.654;23.360;2023-08-08T06:32:46;4.72;;;2.75;;
6388;SDS011;3227;42.654;23.360;2023-08-08T06:37:59;5.78;;;2.97;;
6388;SDS011;3227;42.654;23.360;2023-08-08T06:40:26;5.50;;;2.85;;
6388;SDS011;3227;42.654;23.360;2023-08-08T06:42:53;7.40;;;4.07;;
6388;SDS011;3227;42.654;23.360;2023-08-08T06:48:13;4.43;;;2.72;;
6388;SDS011;3227;42.654;23.360;2023-08-08T06:50:40;8.95;;;3.10;;
6388;SDS011;3227;42.654;23.360;2023-08-08T06:53:06;6.65;;;3.10;;
6388;SDS011;3227;42.654;23.360;2023-08-08T06:55:33;4.18;;;2.63;;
6388;SDS011;3227;42.654;23.360;2023-08-08T06:58:00;6.00;;;3.00;;
6388;SDS011;3227;42.654;23.360;2023-08-08T07:00:27;6.38;;;3.55;;
6388;SDS011;3227;42.654;23.360;2023-08-08T07:02:54;7.10;;;3.40;;
6388;SDS011;3227;42.654;23.360;2023-08-08T07:05:22;8.07;;;2.58;;
6388;SDS011;3227;42.654;23.360;2023-08-08T07:07:49;4.50;;;2.38;;
6388;SDS011;3227;42.654;23.360;2023-08-08T07:10:16;5.00;;;2.45;;
6388;SDS011;3227;42.654;23.360;2023-08-08T07:12:43;4.57;;;2.67;;
6388;SDS011;3227;42.654;23.360;2023-08-08T07:15:10;7.30;;;2.55;;
6388;SDS011;3227;42.654;23.360;2023-08-08T07:17:37;4.55;;;2.45;;
6388;SDS011;3227;42.654;23.360;2023-08-08T07:20:04;10.27;;;2.58;;
6388;SDS011;3227;42.654;23.360;2023-08-08T07:22:34;6.10;;;2.42;;
6388;SDS011;3227;42.654;23.360;2023-08-08T07:25:01;4.18;;;2.10;;
6388;SDS011;3227;42.654;23.360;2023-08-08T07:27:29;3.53;;;2.00;;
6388;SDS011;3227;42.654;23.360;2023-08-08T07:29:56;3.88;;;2.35;;
6388;SDS011;3227;42.654;23.360;2023-08-08T07:32:24;3.45;;;2.10;;
6388;SDS011;3227;42.654;23.360;2023-08-08T07:34:50;2.47;;;1.77;;
6388;SDS011;3227;42.654;23.360;2023-08-08T07:37:17;6.65;;;2.53;;
6388;SDS011;3227;42.654;23.360;2023-08-08T07:39:45;3.67;;;2.20;;
6388;SDS011;3227;42.654;23.360;2023-08-08T07:42:12;3.38;;;2.15;;
6388;SDS011;3227;42.654;23.360;2023-08-08T07:44:39;3.88;;;1.95;;
6388;SDS011;3227;42.654;23.360;2023-08-08T07:47:06;3.90;;;2.10;;
6388;SDS011;3227;42.654;23.360;2023-08-08T07:49:32;4.10;;;2.08;;
6388;SDS011;3227;42.654;23.360;2023-08-08T07:51:59;2.28;;;1.70;;
6388;SDS011;3227;42.654;23.360;2023-08-08T07:54:26;3.83;;;2.13;;
6388;SDS011;3227;42.654;23.360;2023-08-08T07:56:54;5.97;;;1.90;;
6388;SDS011;3227;42.654;23.360;2023-08-08T07:59:21;3.22;;;1.80;;
6388;SDS011;3227;42.654;23.360;2023-08-08T08:01:48;3.15;;;1.90;;
6388;SDS011;3227;42.654;23.360;2023-08-08T08:04:15;2.70;;;1.75;;
6388;SDS011;3227;42.654;23.360;2023-08-08T08:06:42;5.43;;;2.22;;
6388;SDS011;3227;42.654;23.360;2023-08-08T08:09:09;4.40;;;2.17;;
6388;SDS011;3227;42.654;23.360;2023-08-08T08:11:36;7.10;;;2.28;;
6388;SDS011;3227;42.654;23.360;2023-08-08T08:14:04;3.72;;;1.90;;
6388;SDS011;3227;42.654;23.360;2023-08-08T08:16:31;2.80;;;1.80;;
6388;SDS011;3227;42.654;23.360;2023-08-08T08:18:57;3.17;;;2.08;;
6388;SDS011;3227;42.654;23.360;2023-08-08T08:21:24;4.57;;;1.88;;
6388;SDS011;3227;42.654;23.360;2023-08-08T08:23:51;4.00;;;2.03;;
6388;SDS011;3227;42.654;23.360;2023-08-08T08:26:18;3.47;;;1.85;;
6388;SDS011;3227;42.654;23.360;2023-08-08T08:28:44;3.85;;;2.17;;
6388;SDS011;3227;42.654;23.360;2023-08-08T08:31:12;4.78;;;2.13;;
6388;SDS011;3227;42.654;23.360;2023-08-08T08:33:39;3.75;;;2.20;;
6388;SDS011;3227;42.654;23.360;2023-08-08T08:36:11;5.20;;;2.10;;
6388;SDS011;3227;42.654;23.360;2023-08-08T08:38:38;3.80;;;2.38;;
6388;SDS011;3227;42.654;23.360;2023-08-08T08:41:04;5.32;;;2.50;;
6388;SDS011;3227;42.654;23.360;2023-08-08T08:43:31;6.45;;;2.17;;
6388;SDS011;3227;42.654;23.360;2023-08-08T08:46:00;7.70;;;2.70;;
6388;SDS011;3227;42.654;23.360;2023-08-08T08:48:29;7.07;;;3.72;;
6388;SDS011;3227;42.654;23.360;2023-08-08T08:50:57;5.03;;;2.63;;
6388;SDS011;3227;42.654;23.360;2023-08-08T08:53:24;3.80;;;2.13;;
6388;SDS011;3227;42.654;23.360;2023-08-08T08:55:52;4.05;;;2.20;;
6388;SDS011;3227;42.654;23.360;2023-08-08T08:58:22;4.00;;;2.40;;
6388;SDS011;3227;42.654;23.360;2023-08-08T09:00:50;4.13;;;2.03;;
6388;SDS011;3227;42.654;23.360;2023-08-08T09:03:18;5.88;;;3.00;;
6388;SDS011;3227;42.654;23.360;2023-08-08T09:05:46;6.85;;;3.33;;
6388;SDS011;3227;42.654;23.360;2023-08-08T09:08:13;6.00;;;3.38;;
6388;SDS011;3227;42.654;23.360;2023-08-08T09:10:40;7.35;;;3.28;;
6388;SDS011;3227;42.654;23.360;2023-08-08T09:13:07;7.97;;;2.60;;
6388;SDS011;3227;42.654;23.360;2023-08-08T09:15:36;4.95;;;2.50;;
6388;SDS011;3227;42.654;23.360;2023-08-08T09:18:02;4.20;;;2.35;;
6388;SDS011;3227;42.654;23.360;2023-08-08T09:20:29;4.45;;;2.10;;
6388;SDS011;3227;42.654;23.360;2023-08-08T09:22:57;5.85;;;2.17;;
6388;SDS011;3227;42.654;23.360;2023-08-08T09:25:39;3.03;;;2.20;;
6388;SDS011;3227;42.654;23.360;2023-08-08T09:28:06;4.18;;;2.30;;
6388;SDS011;3227;42.654;23.360;2023-08-08T09:30:33;3.53;;;2.40;;
6388;SDS011;3227;42.654;23.360;2023-08-08T09:33:00;7.18;;;2.95;;
6388;SDS011;3227;42.654;23.360;2023-08-08T09:35:28;2.95;;;2.10;;
6388;SDS011;3227;42.654;23.360;2023-08-08T09:37:56;3.70;;;2.30;;
6388;SDS011;3227;42.654;23.360;2023-08-08T09:40:24;6.35;;;2.10;;
6388;SDS011;3227;42.654;23.360;2023-08-08T09:42:52;5.20;;;2.33;;
6388;SDS011;3227;42.654;23.360;2023-08-08T09:45:19;2.85;;;2.00;;
6388;SDS011;3227;42.654;23.360;2023-08-08T09:47:48;4.80;;;2.00;;
6388;SDS011;3227;42.654;23.360;2023-08-08T09:50:17;3.95;;;2.28;;
6388;SDS011;3227;42.654;23.360;2023-08-08T09:52:45;2.67;;;1.95;;
6388;SDS011;3227;42.654;23.360;2023-08-08T09:55:15;3.60;;;2.20;;
6388;SDS011;3227;42.654;23.360;2023-08-08T09:57:42;3.90;;;2.20;;
6388;SDS011;3227;42.654;23.360;2023-08-08T10:00:09;2.90;;;2.10;;
6388;SDS011;3227;42.654;23.360;2023-08-08T10:02:41;3.35;;;2.05;;
6388;SDS011;3227;42.654;23.360;2023-08-08T10:05:09;2.80;;;1.92;;
6388;SDS011;3227;42.654;23.360;2023-08-08T10:07:37;2.75;;;1.85;;
6388;SDS011;3227;42.654;23.360;2023-08-08T10:10:06;3.30;;;2.20;;
6388;SDS011;3227;42.654;23.360;2023-08-08T10:12:35;4.65;;;2.17;;
6388;SDS011;3227;42.654;23.360;2023-08-08T10:15:03;3.60;;;2.28;;
6388;SDS011;3227;42.654;23.360;2023-08-08T10:17:34;3.08;;;2.15;;
6388;SDS011;3227;42.654;23.360;2023-08-08T10:20:03;2.97;;;1.80;;
6388;SDS011;3227;42.654;23.360;2023-08-08T10:22:36;7.07;;;2.40;;
6388;SDS011;3227;42.654;23.360;2023-08-08T10:25:04;3.35;;;2.00;;
6388;SDS011;3227;42.654;23.360;2023-08-08T10:27:32;3.75;;;2.20;;
6388;SDS011;3227;42.654;23.360;2023-08-08T10:30:05;4.13;;;2.17;;
6388;SDS011;3227;42.654;23.360;2023-08-08T10:32:38;6.78;;;2.50;;
6388;SDS011;3227;42.654;23.360;2023-08-08T10:35:06;4.47;;;2.58;;
6388;SDS011;3227;42.654;23.360;2023-08-08T10:37:33;3.22;;;2.30;;
6388;SDS011;3227;42.654;23.360;2023-08-08T10:40:01;6.00;;;2.60;;
6388;SDS011;3227;42.654;23.360;2023-08-08T10:42:31;4.30;;;2.17;;
6388;SDS011;3227;42.654;23.360;2023-08-08T10:44:59;3.28;;;2.30;;
6388;SDS011;3227;42.654;23.360;2023-08-08T10:47:30;3.67;;;2.10;;
6388;SDS011;3227;42.654;23.360;2023-08-08T10:49:58;6.53;;;2.47;;
6388;SDS011;3227;42.654;23.360;2023-08-08T10:52:26;4.05;;;2.55;;
6388;SDS011;3227;42.654;23.360;2023-08-08T10:54:53;3.63;;;2.30;;
6388;SDS011;3227;42.654;23.360;2023-08-08T10:57:24;6.07;;;2.40;;
6388;SDS011;3227;42.654;23.360;2023-08-08T10:59:51;4.80;;;2.20;;
6388;SDS011;3227;42.654;23.360;2023-08-08T11:02:18;3.50;;;2.20;;
6388;SDS011;3227;42.654;23.360;2023-08-08T11:04:47;3.83;;;2.33;;
6388;SDS011;3227;42.654;23.360;2023-08-08T11:07:15;4.63;;;2.15;;
6388;SDS011;3227;42.654;23.360;2023-08-08T11:09:42;4.72;;;2.42;;
6388;SDS011;3227;42.654;23.360;2023-08-08T11:12:13;2.75;;;2.03;;
6388;SDS011;3227;42.654;23.360;2023-08-08T11:14:40;6.05;;;2.08;;
6388;SDS011;3227;42.654;23.360;2023-08-08T11:17:08;3.80;;;2.35;;
6388;SDS011;3227;42.654;23.360;2023-08-08T11:19:40;6.93;;;2.10;;
6388;SDS011;3227;42.654;23.360;2023-08-08T11:22:10;2.55;;;1.80;;
6388;SDS011;3227;42.654;23.360;2023-08-08T11:24:37;3.25;;;1.90;;
6388;SDS011;3227;42.654;23.360;2023-08-08T11:27:04;3.53;;;1.73;;
6388;SDS011;3227;42.654;23.360;2023-08-08T11:29:31;3.33;;;1.92;;
6388;SDS011;3227;42.654;23.360;2023-08-08T11:31:59;5.45;;;2.10;;
6388;SDS011;3227;42.654;23.360;2023-08-08T11:34:29;4.15;;;1.90;;
6388;SDS011;3227;42.654;23.360;2023-08-08T11:36:57;5.95;;;2.00;;
6388;SDS011;3227;42.654;23.360;2023-08-08T11:39:26;4.03;;;2.20;;
6388;SDS011;3227;42.654;23.360;2023-08-08T11:41:53;3.55;;;2.10;;
6388;SDS011;3227;42.654;23.360;2023-08-08T11:44:21;4.35;;;1.95;;
6388;SDS011;3227;42.654;23.360;2023-08-08T11:46:48;2.60;;;1.88;;
6388;SDS011;3227;42.654;23.360;2023-08-08T11:49:15;4.18;;;2.05;;
6388;SDS011;3227;42.654;23.360;2023-08-08T11:51:43;4.68;;;2.00;;
6388;SDS011;3227;42.654;23.360;2023-08-08T11:54:10;3.40;;;2.10;;
6388;SDS011;3227;42.654;23.360;2023-08-08T11:56:39;3.67;;;2.22;;
6388;SDS011;3227;42.654;23.360;2023-08-08T11:59:06;2.35;;;1.85;;
6388;SDS011;3227;42.654;23.360;2023-08-08T12:01:34;2.45;;;1.90;;
6388;SDS011;3227;42.654;23.360;2023-08-08T12:04:04;3.63;;;2.17;;
6388;SDS011;3227;42.654;23.360;2023-08-08T12:06:32;3.38;;;2.10;;
6388;SDS011;3227;42.654;23.360;2023-08-08T12:09:02;3.05;;;1.85;;
6388;SDS011;3227;42.654;23.360;2023-08-08T12:11:29;4.03;;;2.00;;
6388;SDS011;3227;42.654;23.360;2023-08-08T12:13:59;3.20;;;2.20;;
6388;SDS011;3227;42.654;23.360;2023-08-08T12:16:27;3.22;;;2.10;;
6388;SDS011;3227;42.654;23.360;2023-08-08T12:18:55;2.60;;;1.90;;
6388;SDS011;3227;42.654;23.360;2023-08-08T12:21:21;3.40;;;2.10;;
6388;SDS011;3227;42.654;23.360;2023-08-08T12:23:48;3.25;;;2.10;;
6388;SDS011;3227;42.654;23.360;2023-08-08T12:26:15;2.53;;;2.05;;
6388;SDS011;3227;42.654;23.360;2023-08-08T12:28:43;2.35;;;1.90;;
6388;SDS011;3227;42.654;23.360;2023-08-08T12:31:11;3.53;;;2.08;;
6388;SDS011;3227;42.654;23.360;2023-08-08T12:33:38;2.75;;;2.10;;
6388;SDS011;3227;42.654;23.360;2023-08-08T12:36:05;2.75;;;2.00;;
6388;SDS011;3227;42.654;23.360;2023-08-08T12:38:32;4.40;;;1.90;;
6388;SDS011;3227;42.654;23.360;2023-08-08T12:41:00;3.45;;;1.90;;
6388;SDS011;3227;42.654;23.360;2023-08-08T12:43:27;3.20;;;1.77;;
6388;SDS011;3227;42.654;23.360;2023-08-08T12:45:54;2.00;;;1.80;;
6388;SDS011;3227;42.654;23.360;2023-08-08T12:48:22;3.75;;;1.98;;
6388;SDS011;3227;42.654;23.360;2023-08-08T12:50:49;5.05;;;2.22;;
6388;SDS011;3227;42.654;23.360;2023-08-08T12:53:16;5.68;;;1.90;;
6388;SDS011;3227;42.654;23.360;2023-08-08T12:55:42;3.25;;;2.08;;
6388;SDS011;3227;42.654;23.360;2023-08-08T12:58:09;6.63;;;2.35;;
6388;SDS011;3227;42.654;23.360;2023-08-08T13:00:36;2.85;;;1.90;;
6388;SDS011;3227;42.654;23.360;2023-08-08T13:03:03;2.40;;;1.75;;
6388;SDS011;3227;42.654;23.360;2023-08-08T13:05:31;2.17;;;1.75;;
6388;SDS011;3227;42.654;23.360;2023-08-08T13:07:58;2.80;;;1.90;;
6388;SDS011;3227;42.654;23.360;2023-08-08T13:10:25;5.47;;;1.90;;
6388;SDS011;3227;42.654;23.360;2023-08-08T13:12:51;2.92;;;1.92;;
6388;SDS011;3227;42.654;23.360;2023-08-08T13:15:20;3.00;;;2.00;;
6388;SDS011;3227;42.654;23.360;2023-08-08T13:17:47;2.35;;;1.58;;
6388;SDS011;3227;42.654;23.360;2023-08-08T13:20:13;4.13;;;1.75;;
6388;SDS011;3227;42.654;23.360;2023-08-08T13:22:42;4.22;;;2.00;;
6388;SDS011;3227;42.654;23.360;2023-08-08T13:25:08;4.32;;;2.28;;
6388;SDS011;3227;42.654;23.360;2023-08-08T13:27:35;2.70;;;1.90;;
6388;SDS011;3227;42.654;23.360;2023-08-08T13:30:03;3.65;;;2.00;;
6388;SDS011;3227;42.654;23.360;2023-08-08T13:32:30;3.40;;;2.03;;
6388;SDS011;3227;42.654;23.360;2023-08-08T13:34:57;5.43;;;1.60;;
6388;SDS011;3227;42.654;23.360;2023-08-08T13:37:24;3.88;;;1.80;;
6388;SDS011;3227;42.654;23.360;2023-08-08T13:39:52;2.35;;;1.80;;
6388;SDS011;3227;42.654;23.360;2023-08-08T13:42:19;3.08;;;1.92;;
6388;SDS011;3227;42.654;23.360;2023-08-08T13:44:45;6.68;;;2.15;;
6388;SDS011;3227;42.654;23.360;2023-08-08T13:47:12;3.45;;;2.08;;
6388;SDS011;3227;42.654;23.360;2023-08-08T13:49:39;5.85;;;2.08;;
6388;SDS011;3227;42.654;23.360;2023-08-08T13:52:06;5.65;;;2.05;;
6388;SDS011;3227;42.654;23.360;2023-08-08T13:54:33;3.00;;;2.00;;
6388;SDS011;3227;42.654;23.360;2023-08-08T13:57:01;2.92;;;2.03;;
6388;SDS011;3227;42.654;23.360;2023-08-08T13:59:27;6.63;;;2.17;;
6388;SDS011;3227;42.654;23.360;2023-08-08T14:01:54;6.47;;;2.40;;
6388;SDS011;3227;42.654;23.360;2023-08-08T14:04:21;8.15;;;2.30;;
6388;SDS011;3227;42.654;23.360;2023-08-08T14:06:48;3.72;;;2.10;;
6388;SDS011;3227;42.654;23.360;2023-08-08T14:09:15;4.93;;;2.63;;
6388;SDS011;3227;42.654;23.360;2023-08-08T14:11:42;3.92;;;2.30;;
6388;SDS011;3227;42.654;23.360;2023-08-08T14:14:10;3.95;;;2.40;;
6388;SDS011;3227;42.654;23.360;2023-08-08T14:16:37;3.38;;;2.30;;
6388;SDS011;3227;42.654;23.360;2023-08-08T14:19:04;3.63;;;2.38;;
6388;SDS011;3227;42.654;23.360;2023-08-08T14:21:31;5.25;;;2.22;;
6388;SDS011;3227;42.654;23.360;2023-08-08T14:23:58;3.70;;;2.40;;
6388;SDS011;3227;42.654;23.360;2023-08-08T14:26:25;6.20;;;2.70;;
6388;SDS011;3227;42.654;23.360;2023-08-08T14:28:52;3.83;;;2.50;;
6388;SDS011;3227;42.654;23.360;2023-08-08T14:31:20;9.57;;;2.70;;
6388;SDS011;3227;42.654;23.360;2023-08-08T14:33:47;4.30;;;2.30;;
6388;SDS011;3227;42.654;23.360;2023-08-08T14:36:13;5.63;;;2.10;;
6388;SDS011;3227;42.654;23.360;2023-08-08T14:38:40;3.85;;;2.10;;
6388;SDS011;3227;42.654;23.360;2023-08-08T14:41:07;4.32;;;2.22;;
6388;SDS011;3227;42.654;23.360;2023-08-08T14:43:34;4.35;;;2.30;;
6388;SDS011;3227;42.654;23.360;2023-08-08T14:46:00;3.38;;;2.10;;
6388;SDS011;3227;42.654;23.360;2023-08-08T14:48:28;5.88;;;2.35;;
6388;SDS011;3227;42.654;23.360;2023-08-08T14:50:55;7.32;;;2.50;;
6388;SDS011;3227;42.654;23.360;2023-08-08T14:53:22;4.47;;;2.40;;
6388;SDS011;3227;42.654;23.360;2023-08-08T14:55:49;5.65;;;2.47;;
6388;SDS011;3227;42.654;23.360;2023-08-08T14:58:16;4.38;;;2.50;;
6388;SDS011;3227;42.654;23.360;2023-08-08T15:00:43;7.85;;;2.10;;
6388;SDS011;3227;42.654;23.360;2023-08-08T15:03:10;4.50;;;2.13;;
6388;SDS011;3227;42.654;23.360;2023-08-08T15:05:40;3.75;;;2.20;;
6388;SDS011;3227;42.654;23.360;2023-08-08T15:08:08;3.58;;;2.13;;